Terminal Aerodrome Forecast
Issued by NWS

Home | Current Version | Previous Version | Text Only | Print | Product List | Glossary On
Versions: 1 2 3 4 5 6 7 8 9 10 11 12 13 14 15 16 17 18 19 20 21 22 23 24 25 26 27 28 29 30 31 32 33 34
000
FTUS41 KCTP 251420 AAB
TAFLNS
TAF AMD
KLNS 251420Z 2514/2612 09012G19KT 3SM -RA BR BKN010 OVC014
     FM251600 10009G16KT 5SM -DZ BR OVC010
     FM251900 18003KT 6SM BR SCT025 BKN035
     FM252300 21003KT 5SM BR VCSH BKN035 OVC150=

USA.gov is the U.S. government's official web portal to all federal, state and local government web resources and services.